Time;durP1;ratioP1;P1;durP2;ratioP2;P2;SDS_P1;SDS_P2;PMS_P1;PMS_P2;Temp;Humidity;BMP_temperature;BMP_pressure;BME280_temperature;BME280_humidity;BME280_pressure;Samples;Min_cycle;Max_cycle;Signal;HPM_P1;HPM_P2
2023/05/13 00:02:05;;;;;;;13.80;8.90;;;;;;;13.95;100.00;101967.84;4963009;28;20070;-75
2023/05/13 00:04:31;;;;;;;13.70;8.93;;;;;;;14.00;100.00;101966.63;4960579;28;20403;-75
2023/05/13 00:07:09;;;;;;;16.52;9.30;;;;;;;13.86;100.00;101973.78;4978965;28;20034;-76
2023/05/13 00:09:35;;;;;;;14.20;9.40;;;;;;;13.76;100.00;101960.06;4985842;28;20030;-76
2023/05/13 00:12:02;;;;;;;12.77;8.85;;;;;;;13.76;100.00;101965.41;4971842;28;20051;-76
2023/05/13 00:14:28;;;;;;;18.75;9.18;;;;;;;13.85;100.00;101962.16;4973855;28;20051;-75
2023/05/13 00:16:54;;;;;;;17.30;9.50;;;;;;;13.82;100.00;101959.69;4972136;28;20035;-75
2023/05/13 00:19:19;;;;;;;16.20;8.50;;;;;;;13.85;100.00;101961.31;4963058;28;20038;-76
2023/05/13 00:21:45;;;;;;;15.05;9.05;;;;;;;13.86;100.00;101955.88;4963630;28;20042;-74
2023/05/13 00:24:11;;;;;;;13.32;8.57;;;;;;;13.84;100.00;101959.59;4979179;28;20043;-75
2023/05/13 00:26:37;;;;;;;11.68;9.07;;;;;;;13.51;100.00;101960.63;4955146;28;20036;-75
2023/05/13 00:29:05;;;;;;;12.57;8.25;;;;;;;13.80;100.00;101961.56;4963670;28;20045;-76
2023/05/13 00:31:31;;;;;;;16.45;8.32;;;;;;;13.72;100.00;101969.22;4984097;28;20047;-76
2023/05/13 00:33:57;;;;;;;18.05;9.13;;;;;;;13.47;100.00;101962.59;4968186;28;20649;-75
2023/05/13 00:36:22;;;;;;;14.43;8.85;;;;;;;13.54;100.00;101960.41;4951965;28;20035;-76
2023/05/13 00:38:48;;;;;;;12.48;8.07;;;;;;;13.57;100.00;101956.72;4961240;28;20039;-76
2023/05/13 00:41:14;;;;;;;13.57;9.80;;;;;;;13.53;100.00;101956.03;4978870;28;20039;-76
2023/05/13 00:43:40;;;;;;;15.73;8.98;;;;;;;13.47;100.00;101956.38;4964104;28;20063;-76
2023/05/13 00:46:09;;;;;;;12.73;9.38;;;;;;;13.47;100.00;101967.97;4979175;28;20053;-76
2023/05/13 00:48:37;;;;;;;12.43;9.10;;;;;;;13.51;100.00;101960.63;4977902;28;20058;-76
2023/05/13 00:51:03;;;;;;;14.00;9.80;;;;;;;13.45;100.00;101963.63;4966518;28;20039;-76
2023/05/13 00:53:32;;;;;;;12.35;9.45;;;;;;;13.46;100.00;101968.06;4979500;28;20050;-75
2023/05/13 00:55:58;;;;;;;10.60;8.73;;;;;;;13.41;100.00;101967.47;4951126;28;20046;-75
2023/05/13 00:58:24;;;;;;;20.25;8.68;;;;;;;13.33;100.00;101972.38;4970055;28;20862;-75
2023/05/13 01:01:02;;;;;;;16.65;9.70;;;;;;;13.35;100.00;101971.31;4966476;28;20614;-76
2023/05/13 01:03:41;;;;;;;10.52;8.90;;;;;;;13.31;100.00;101963.56;4962056;28;20859;-76
2023/05/13 01:06:20;;;;;;;15.57;9.55;;;;;;;13.36;100.00;101967.72;4983577;28;20519;-76
2023/05/13 01:09:10;;;;;;;12.40;9.93;;;;;;;13.30;100.00;101965.38;4958144;28;20035;-76
2023/05/13 01:11:40;;;;;;;12.48;8.93;;;;;;;13.19;100.00;101959.72;4962791;28;20043;-77
2023/05/13 01:14:11;;;;;;;13.90;9.15;;;;;;;13.09;100.00;101961.19;4963961;28;20070;-76
2023/05/13 01:17:06;;;;;;;14.90;8.87;;;;;;;13.12;100.00;101966.38;4978255;28;20043;-76
2023/05/13 01:19:41;;;;;;;13.23;10.27;;;;;;;13.08;100.00;101964.81;4952814;28;20096;-76
2023/05/13 01:22:06;;;;;;;14.90;9.55;;;;;;;13.10;100.00;101958.44;4974672;28;20070;-76
2023/05/13 01:24:33;;;;;;;20.52;10.13;;;;;;;12.94;100.00;101969.13;4974879;28;20180;-76
2023/05/13 01:26:59;;;;;;;16.77;10.50;;;;;;;12.95;100.00;101959.28;4965695;28;20035;-76
2023/05/13 01:29:25;;;;;;;15.32;10.45;;;;;;;12.80;100.00;101966.38;4978070;28;20042;-76
2023/05/13 01:31:52;;;;;;;18.20;10.05;;;;;;;12.69;100.00;101966.91;4970977;28;20047;-76
2023/05/13 01:34:22;;;;;;;15.38;10.55;;;;;;;12.66;100.00;101963.56;4962147;28;20035;-77
2023/05/13 01:36:48;;;;;;;15.13;10.70;;;;;;;12.90;100.00;101962.22;4966943;28;20023;-78
2023/05/13 01:39:18;;;;;;;13.00;9.90;;;;;;;12.79;100.00;101966.44;4953528;28;20031;-77
2023/05/13 01:41:45;;;;;;;12.98;10.10;;;;;;;12.70;100.00;101968.69;4975458;28;20047;-75
2023/05/13 01:44:10;;;;;;;12.32;10.00;;;;;;;12.70;100.00;101967.78;4970634;28;20039;-77
2023/05/13 01:46:37;;;;;;;17.90;11.38;;;;;;;12.62;100.00;101967.34;4984812;28;20603;-76
2023/05/13 01:49:03;;;;;;;13.32;10.55;;;;;;;12.62;100.00;101965.53;4984602;28;20039;-77
2023/05/13 01:51:31;;;;;;;18.13;11.15;;;;;;;12.61;100.00;101971.84;4978748;28;20035;-77
2023/05/13 01:53:56;;;;;;;16.08;10.20;;;;;;;12.50;100.00;101970.66;4968229;28;20042;-76
2023/05/13 01:56:22;;;;;;;16.00;10.77;;;;;;;12.60;100.00;101964.78;4968478;28;20332;-76
2023/05/13 01:58:48;;;;;;;15.77;11.00;;;;;;;12.48;100.00;101968.09;4980291;28;20043;-76
2023/05/13 02:01:14;;;;;;;15.52;11.27;;;;;;;12.45;100.00;101970.94;4976524;28;20035;-75
2023/05/13 02:03:42;;;;;;;23.88;11.70;;;;;;;12.54;100.00;101966.88;4965089;28;20985;-77
2023/05/13 02:06:13;;;;;;;18.70;11.53;;;;;;;12.49;100.00;101971.63;4979740;28;20058;-76
2023/05/13 02:08:39;;;;;;;19.77;12.85;;;;;;;12.26;100.00;101968.38;4970229;28;20415;-76
2023/05/13 02:11:07;;;;;;;21.98;13.23;;;;;;;12.34;100.00;101959.91;4970941;28;20122;-76
2023/05/13 02:13:33;;;;;;;17.90;11.60;;;;;;;12.21;100.00;101966.88;4969241;28;20069;-75
2023/05/13 02:15:59;;;;;;;18.00;12.70;;;;;;;12.24;100.00;101972.03;4984545;28;20939;-76
2023/05/13 02:18:25;;;;;;;16.23;12.32;;;;;;;12.26;100.00;101968.38;4961022;28;20039;-76
2023/05/13 02:20:50;;;;;;;19.08;12.63;;;;;;;11.98;100.00;101970.72;4962837;28;20551;-76
2023/05/13 02:23:16;;;;;;;18.45;13.60;;;;;;;12.02;100.00;101975.84;4969153;28;20830;-76
2023/05/13 02:25:42;;;;;;;15.13;11.52;;;;;;;12.04;100.00;101970.41;4974622;28;20066;-75
2023/05/13 02:28:09;;;;;;;17.30;11.88;;;;;;;11.96;100.00;101970.81;4968315;28;20031;-76
2023/05/13 02:30:35;;;;;;;20.17;12.93;;;;;;;12.08;100.00;101971.97;4971999;28;20102;-76
2023/05/13 02:33:03;;;;;;;19.10;12.75;;;;;;;11.96;100.00;101965.47;4978416;28;20043;-77
2023/05/13 02:35:35;;;;;;;15.20;11.88;;;;;;;11.96;100.00;101969.94;4968600;28;20039;-76
2023/05/13 02:38:05;;;;;;;19.17;12.57;;;;;;;11.89;100.00;101964.03;4979017;28;20035;-76
2023/05/13 02:40:35;;;;;;;15.50;12.55;;;;;;;11.73;100.00;101963.91;4962505;28;20031;-76
2023/05/13 02:43:00;;;;;;;16.08;12.15;;;;;;;11.92;100.00;101966.56;4976326;28;20182;-76
2023/05/13 02:45:40;;;;;;;22.38;12.95;;;;;;;11.81;100.00;101968.88;4962884;28;20041;-75
2023/05/13 02:48:06;;;;;;;20.08;13.57;;;;;;;11.68;100.00;101972.16;4972944;28;20053;-75
2023/05/13 02:50:33;;;;;;;21.17;12.88;;;;;;;11.72;100.00;101969.34;4983276;28;20039;-76
2023/05/13 02:53:00;;;;;;;25.13;14.10;;;;;;;11.55;100.00;101970.19;4964692;28;20038;-76
2023/05/13 02:55:25;;;;;;;19.55;13.15;;;;;;;11.71;100.00;101967.63;4978138;28;20035;-75
2023/05/13 02:57:51;;;;;;;18.38;12.93;;;;;;;11.67;100.00;101970.44;4976408;28;20061;-76
2023/05/13 03:00:21;;;;;;;15.77;12.55;;;;;;;11.46;100.00;101970.63;4961374;28;20035;-77
2023/05/13 03:02:47;;;;;;;19.42;13.90;;;;;;;11.60;100.00;101963.69;4965260;28;20058;-76
2023/05/13 03:05:12;;;;;;;24.27;15.05;;;;;;;11.49;100.00;101962.47;4974817;28;20066;-75
2023/05/13 03:07:39;;;;;;;19.27;12.80;;;;;;;11.50;100.00;101961.53;4970370;28;20039;-75
2023/05/13 03:10:08;;;;;;;15.00;12.73;;;;;;;11.62;100.00;101947.56;4961057;28;20036;-75
2023/05/13 03:12:37;;;;;;;21.63;14.15;;;;;;;11.46;100.00;101966.16;4961775;28;20535;-77
2023/05/13 03:15:06;;;;;;;18.35;13.55;;;;;;;11.55;100.00;101956.84;4961536;28;20048;-76
2023/05/13 03:17:32;;;;;;;16.38;12.98;;;;;;;11.59;100.00;101964.59;4972271;28;20034;-76
2023/05/13 03:19:58;;;;;;;21.70;14.25;;;;;;;11.45;100.00;101968.91;4981526;28;20062;-76
2023/05/13 03:22:24;;;;;;;17.48;14.27;;;;;;;11.42;100.00;101964.56;4963316;28;20032;-75
2023/05/13 03:24:49;;;;;;;19.63;14.23;;;;;;;11.41;100.00;101970.84;4985219;28;20043;-76
2023/05/13 03:27:15;;;;;;;16.50;13.48;;;;;;;11.27;100.00;101966.19;4970636;28;20037;-75
2023/05/13 03:29:42;;;;;;;21.80;14.68;;;;;;;11.24;100.00;101965.44;4965358;28;20031;-76
2023/05/13 03:32:07;;;;;;;20.48;13.50;;;;;;;11.24;100.00;101963.66;4983084;28;20047;-75
2023/05/13 03:34:35;;;;;;;22.88;14.60;;;;;;;11.29;100.00;101963.44;4986001;28;20070;-76
2023/05/13 03:37:01;;;;;;;20.45;15.27;;;;;;;11.39;100.00;101967.38;4965025;28;20039;-75
2023/05/13 03:39:28;;;;;;;18.70;14.73;;;;;;;11.29;100.00;101961.63;4965922;28;20043;-76
2023/05/13 03:41:54;;;;;;;25.95;15.00;;;;;;;11.38;100.00;101963.84;4982292;28;20032;-76
2023/05/13 03:44:19;;;;;;;22.00;14.93;;;;;;;11.18;100.00;101963.09;4970047;28;20108;-75
2023/05/13 03:46:45;;;;;;;22.95;15.30;;;;;;;11.28;100.00;101970.56;4978606;28;20054;-75
2023/05/13 03:49:11;;;;;;;24.38;15.35;;;;;;;11.31;100.00;101970.44;4962144;28;20026;-75
2023/05/13 03:51:37;;;;;;;21.23;15.23;;;;;;;11.20;100.00;101974.56;4956876;28;20086;-76
2023/05/13 03:54:03;;;;;;;22.02;14.80;;;;;;;11.30;100.00;101979.41;4969966;28;20039;-76
2023/05/13 03:56:40;;;;;;;21.38;14.90;;;;;;;11.48;100.00;101976.75;4975690;28;20035;-75
2023/05/13 03:59:07;;;;;;;23.27;15.63;;;;;;;11.44;100.00;101978.69;4962162;28;20562;-75
2023/05/13 04:01:35;;;;;;;20.70;14.90;;;;;;;11.28;100.00;101980.41;4966774;28;20035;-76
2023/05/13 04:04:00;;;;;;;22.88;15.10;;;;;;;11.34;100.00;101977.41;4966806;28;20031;-75
2023/05/13 04:06:26;;;;;;;20.90;16.20;;;;;;;11.43;100.00;101976.97;4987629;28;20540;-75
2023/05/13 04:08:54;;;;;;;19.63;15.40;;;;;;;11.47;100.00;101980.38;4968990;28;20043;-75
2023/05/13 04:11:20;;;;;;;23.55;16.60;;;;;;;11.39;100.00;101978.94;4969327;28;20185;-77
2023/05/13 04:13:46;;;;;;;20.58;15.52;;;;;;;11.38;100.00;101977.19;4975042;28;20046;-76
2023/05/13 04:16:13;;;;;;;20.52;15.88;;;;;;;11.24;100.00;101976.13;4969766;28;20443;-76
2023/05/13 04:18:39;;;;;;;21.45;16.33;;;;;;;11.27;100.00;101973.31;4968576;28;20031;-76
2023/05/13 04:21:09;;;;;;;22.55;16.20;;;;;;;11.18;100.00;101976.44;4955100;28;20030;-76
2023/05/13 04:23:35;;;;;;;22.30;16.23;;;;;;;11.63;100.00;101966.19;4987132;28;20042;-76
2023/05/13 04:26:01;;;;;;;21.60;15.90;;;;;;;12.02;100.00;101972.31;4981687;28;20043;-76
2023/05/13 04:28:27;;;;;;;27.60;15.48;;;;;;;12.56;100.00;101975.72;4981975;28;20063;-76
2023/05/13 04:30:53;;;;;;;23.92;15.52;;;;;;;12.60;100.00;101970.13;4983183;28;20031;-77
2023/05/13 04:33:19;;;;;;;18.25;15.05;;;;;;;12.95;100.00;101973.56;4982510;28;20560;-76
2023/05/13 04:35:46;;;;;;;20.88;15.45;;;;;;;12.88;100.00;101966.78;4988269;28;20059;-76
2023/05/13 04:38:12;;;;;;;19.40;15.60;;;;;;;12.60;100.00;101977.25;4978371;28;20394;-75
2023/05/13 04:40:38;;;;;;;21.95;15.77;;;;;;;12.27;100.00;101979.94;4975873;28;20757;-76
2023/05/13 04:43:13;;;;;;;28.13;16.98;;;;;;;12.00;100.00;101985.75;4956282;28;20027;-75
2023/05/13 04:45:47;;;;;;;20.38;16.08;;;;;;;11.64;100.00;101996.44;4982676;28;20039;-75
2023/05/13 04:48:13;;;;;;;18.80;15.55;;;;;;;11.25;100.00;101993.91;4953958;28;20047;-76
2023/05/13 04:50:46;;;;;;;26.40;17.05;;;;;;;11.48;100.00;101998.13;4985561;28;20043;-75
2023/05/13 04:53:14;;;;;;;26.00;16.67;;;;;;;12.24;100.00;102001.47;4950692;28;20150;-75
2023/05/13 04:55:39;;;;;;;19.02;16.08;;;;;;;13.21;100.00;101996.22;4970832;28;20046;-75
2023/05/13 04:58:05;;;;;;;23.02;16.13;;;;;;;13.60;100.00;101992.22;4968728;28;20043;-75
2023/05/13 05:00:33;;;;;;;23.60;15.18;;;;;;;14.06;100.00;101988.69;4985005;28;20038;-76
2023/05/13 05:02:59;;;;;;;22.02;15.95;;;;;;;13.34;100.00;101998.22;4967994;28;20034;-76
2023/05/13 05:05:25;;;;;;;21.60;15.30;;;;;;;13.07;100.00;101997.91;4974364;28;20097;-76
2023/05/13 05:07:51;;;;;;;21.15;16.25;;;;;;;12.78;100.00;102005.72;4982891;28;20039;-75
2023/05/13 05:10:19;;;;;;;21.38;15.40;;;;;;;12.39;100.00;102000.66;4975786;28;20479;-77
2023/05/13 05:12:50;;;;;;;21.33;15.43;;;;;;;12.36;100.00;102001.72;4970001;28;20122;-76
2023/05/13 05:15:16;;;;;;;18.52;15.15;;;;;;;12.57;100.00;102005.06;4976466;28;20114;-76
2023/05/13 05:17:45;;;;;;;21.42;15.18;;;;;;;13.43;100.00;102008.41;4968737;28;20031;-76
2023/05/13 05:20:11;;;;;;;19.13;15.43;;;;;;;14.17;100.00;102005.88;4984949;28;20039;-75
2023/05/13 05:22:37;;;;;;;21.77;15.40;;;;;;;14.41;100.00;102000.84;4971899;28;20154;-75
2023/05/13 05:25:05;;;;;;;21.33;14.88;;;;;;;14.30;100.00;101997.06;4977821;28;20035;-76
2023/05/13 05:27:31;;;;;;;18.23;14.40;;;;;;;13.85;100.00;102004.19;4987527;28;20161;-76
2023/05/13 05:29:57;;;;;;;26.02;15.98;;;;;;;13.39;100.00;102015.75;4973332;28;20058;-76
2023/05/13 05:32:24;;;;;;;23.52;16.15;;;;;;;12.90;100.00;102021.13;4973628;28;20038;-76
2023/05/13 05:34:49;;;;;;;19.25;15.80;;;;;;;12.88;100.00;102019.47;4988668;28;20106;-77
2023/05/13 05:37:15;;;;;;;20.48;15.57;;;;;;;12.91;100.00;102019.31;4970253;28;20031;-76
2023/05/13 05:39:41;;;;;;;26.38;16.58;;;;;;;12.72;100.00;102023.94;4963466;28;20039;-75
2023/05/13 05:42:07;;;;;;;24.80;16.80;;;;;;;12.54;100.00;102023.06;4972848;28;20034;-76
2023/05/13 05:44:36;;;;;;;18.98;15.80;;;;;;;13.02;100.00;102022.25;4980248;28;20093;-75
2023/05/13 05:47:08;;;;;;;23.52;16.08;;;;;;;13.77;100.00;102023.44;4977775;28;20117;-75
2023/05/13 05:49:33;;;;;;;21.48;15.52;;;;;;;14.06;100.00;102023.56;4985976;28;20073;-76
2023/05/13 05:51:59;;;;;;;22.10;15.77;;;;;;;13.71;100.00;102029.16;4977111;28;20031;-76
2023/05/13 05:54:27;;;;;;;19.80;16.30;;;;;;;13.47;100.00;102018.00;4967026;28;20031;-76
2023/05/13 05:56:52;;;;;;;19.80;16.80;;;;;;;13.05;100.00;102027.47;4968006;28;20558;-76
2023/05/13 05:59:21;;;;;;;20.55;16.08;;;;;;;13.20;100.00;102031.97;4972056;28;20354;-76
2023/05/13 06:01:47;;;;;;;23.35;17.23;;;;;;;13.41;100.00;102031.75;4976670;28;20039;-77
2023/05/13 06:04:13;;;;;;;22.75;16.52;;;;;;;13.32;100.00;102025.09;4980606;28;20034;-76
2023/05/13 06:06:39;;;;;;;20.45;16.30;;;;;;;13.57;100.00;102034.44;4967797;28;20035;-76
2023/05/13 06:09:05;;;;;;;20.23;15.68;;;;;;;13.83;100.00;102028.44;4973825;28;20037;-75
2023/05/13 06:11:33;;;;;;;17.92;14.82;;;;;;;13.86;100.00;102030.09;4972667;28;20034;-76
2023/05/13 06:13:59;;;;;;;19.73;15.50;;;;;;;13.98;100.00;102022.19;4966953;28;20046;-74
2023/05/13 06:16:25;;;;;;;18.42;14.57;;;;;;;13.78;100.00;102025.16;4972287;28;20635;-75
2023/05/13 06:18:51;;;;;;;21.30;16.30;;;;;;;13.58;100.00;102034.34;4972881;28;20050;-75
2023/05/13 06:21:17;;;;;;;20.90;15.57;;;;;;;13.27;100.00;102040.56;4969743;28;20057;-76
2023/05/13 06:23:46;;;;;;;22.05;15.07;;;;;;;13.15;100.00;102034.03;4965150;28;20836;-75
2023/05/13 06:26:12;;;;;;;23.00;16.65;;;;;;;13.01;100.00;102035.75;4963322;28;20035;-76
2023/05/13 06:28:38;;;;;;;22.13;15.48;;;;;;;13.29;100.00;102040.47;4965321;28;20038;-74
2023/05/13 06:31:03;;;;;;;18.80;15.95;;;;;;;13.27;100.00;102035.19;4966226;28;20035;-75
2023/05/13 06:33:31;;;;;;;22.17;15.85;;;;;;;14.09;100.00;102036.78;4981826;28;20042;-76
2023/05/13 06:35:56;;;;;;;20.45;15.73;;;;;;;14.27;100.00;102040.19;4966330;28;20030;-75
2023/05/13 06:38:23;;;;;;;20.98;15.75;;;;;;;13.98;100.00;102037.41;4963373;28;20071;-75
2023/05/13 06:40:53;;;;;;;23.92;15.63;;;;;;;14.09;100.00;102039.44;4971217;28;20035;-75
2023/05/13 06:43:25;;;;;;;21.92;15.23;;;;;;;14.79;100.00;102037.91;4966240;28;20034;-76
2023/05/13 06:45:58;;;;;;;20.70;15.07;;;;;;;14.96;100.00;102034.16;4980670;28;20501;-75
2023/05/13 06:48:26;;;;;;;24.25;17.17;;;;;;;15.27;100.00;102033.97;4952765;28;20595;-76
2023/05/13 06:50:52;;;;;;;22.40;14.60;;;;;;;15.51;100.00;102030.63;4963579;28;20038;-75
2023/05/13 06:53:20;;;;;;;21.70;14.32;;;;;;;15.84;100.00;102037.50;4968386;28;20046;-76
2023/05/13 06:55:46;;;;;;;18.38;14.18;;;;;;;15.77;100.00;102039.75;4966008;28;20038;-75
2023/05/13 06:58:12;;;;;;;18.65;14.23;;;;;;;15.89;100.00;102038.06;4966699;28;20027;-75
2023/05/13 07:00:40;;;;;;;21.48;13.82;;;;;;;15.66;100.00;102027.00;4979188;28;20042;-75
2023/05/13 07:03:06;;;;;;;16.85;15.07;;;;;;;15.66;100.00;102036.88;4968162;28;20046;-76
2023/05/13 07:05:33;;;;;;;21.90;14.45;;;;;;;15.93;100.00;102037.75;4967603;28;20173;-76
2023/05/13 07:08:05;;;;;;;17.45;14.63;;;;;;;16.06;100.00;102037.78;4965622;28;20093;-76
2023/05/13 07:10:35;;;;;;;20.40;14.85;;;;;;;15.79;100.00;102033.28;4972363;28;20050;-77
2023/05/13 07:13:07;;;;;;;21.73;15.35;;;;;;;15.93;100.00;102044.97;4964507;28;20093;-75
2023/05/13 07:15:33;;;;;;;21.42;14.18;;;;;;;16.12;100.00;102032.00;4961345;28;20041;-75
2023/05/13 07:17:59;;;;;;;19.00;15.23;;;;;;;16.18;100.00;102036.97;4968327;28;20039;-76
2023/05/13 07:20:25;;;;;;;20.67;14.15;;;;;;;16.34;100.00;102035.91;4969438;28;20652;-75
2023/05/13 07:22:50;;;;;;;18.40;14.95;;;;;;;16.36;100.00;102034.81;4965228;28;20039;-76
2023/05/13 07:25:17;;;;;;;23.73;14.38;;;;;;;16.31;100.00;102035.16;4968531;28;20580;-75
2023/05/13 07:27:44;;;;;;;20.75;14.82;;;;;;;16.42;100.00;102042.50;4961209;28;20895;-75
2023/05/13 07:30:11;;;;;;;19.95;14.95;;;;;;;17.26;100.00;102033.84;4966218;28;20680;-76
2023/05/13 07:32:37;;;;;;;17.65;14.18;;;;;;;17.16;95.96;102034.63;4964002;28;20948;-76
2023/05/13 07:35:05;;;;;;;19.75;14.55;;;;;;;17.06;97.01;102035.28;4968127;28;20034;-76
2023/05/13 07:37:33;;;;;;;19.17;14.82;;;;;;;16.89;99.82;102037.47;4981967;28;20039;-76
2023/05/13 07:39:58;;;;;;;17.08;14.40;;;;;;;16.94;100.00;102043.41;4963740;28;20331;-76
2023/05/13 07:42:26;;;;;;;18.02;15.10;;;;;;;17.14;100.00;102037.44;4965119;28;20260;-75
2023/05/13 07:44:51;;;;;;;21.77;15.23;;;;;;;16.99;100.00;102039.41;4964254;28;20065;-76
2023/05/13 07:47:18;;;;;;;17.90;14.23;;;;;;;17.19;100.00;102037.97;4964952;28;20071;-76
2023/05/13 07:49:43;;;;;;;18.15;14.95;;;;;;;17.39;100.00;102039.22;4963065;28;20038;-76
2023/05/13 07:52:12;;;;;;;19.08;15.15;;;;;;;17.26;95.72;102033.84;4963966;28;20038;-76
2023/05/13 07:54:38;;;;;;;23.77;15.55;;;;;;;17.35;96.67;102035.88;4964589;28;20035;-75
2023/05/13 07:57:03;;;;;;;20.95;14.57;;;;;;;17.36;98.31;102031.34;4967787;28;20042;-76
2023/05/13 07:59:36;;;;;;;23.63;15.30;;;;;;;17.72;100.00;102029.63;4967383;28;20040;-76
2023/05/13 08:02:03;;;;;;;23.85;15.23;;;;;;;18.19;100.00;102036.88;4959694;28;20031;-76
2023/05/13 08:04:29;;;;;;;22.88;14.65;;;;;;;17.98;93.62;102031.28;4967566;28;20041;-76
2023/05/13 08:06:55;;;;;;;22.42;15.15;;;;;;;18.21;96.49;102034.03;4960111;28;20045;-77
2023/05/13 08:09:23;;;;;;;17.80;14.85;;;;;;;18.48;93.44;102045.44;4964361;28;20109;-75
2023/05/13 08:11:49;;;;;;;20.38;15.02;;;;;;;18.78;97.79;102041.34;4970133;28;20050;-76
2023/05/13 08:14:14;;;;;;;19.95;15.07;;;;;;;18.33;95.06;102031.28;4970137;28;20043;-76
2023/05/13 08:16:43;;;;;;;20.08;14.63;;;;;;;18.58;95.58;102043.75;4965322;28;20481;-76
2023/05/13 08:19:15;;;;;;;18.38;14.38;;;;;;;18.31;93.64;102035.06;4968970;28;20035;-77
2023/05/13 08:21:43;;;;;;;17.33;15.10;;;;;;;18.08;94.95;102037.69;4963195;28;20031;-76
2023/05/13 08:24:09;;;;;;;20.77;14.70;;;;;;;17.73;94.41;102036.78;4965533;28;20039;-76
2023/05/13 08:26:37;;;;;;;21.20;14.65;;;;;;;18.35;92.36;102036.53;4971060;28;20120;-75
2023/05/13 08:29:14;;;;;;;19.98;15.43;;;;;;;18.17;99.03;102040.66;4966737;28;20114;-74
2023/05/13 08:31:40;;;;;;;18.80;15.75;;;;;;;18.14;92.51;102041.75;4978740;28;20039;-75
2023/05/13 08:34:09;;;;;;;24.55;14.57;;;;;;;18.41;98.20;102037.91;4963757;28;20670;-76
2023/05/13 08:36:37;;;;;;;19.42;15.20;;;;;;;18.54;92.38;102042.25;4968958;28;20042;-75
2023/05/13 08:39:04;;;;;;;20.70;15.55;;;;;;;18.56;96.08;102036.72;4963362;28;20031;-75
2023/05/13 08:41:33;;;;;;;21.10;15.05;;;;;;;18.74;97.87;102037.16;4979684;28;20071;-74
2023/05/13 08:44:03;;;;;;;19.45;15.45;;;;;;;18.82;92.87;102032.84;4971596;28;20043;-74
2023/05/13 08:46:33;;;;;;;23.33;15.40;;;;;;;19.06;90.47;102030.03;4961725;28;20034;-74
2023/05/13 08:49:01;;;;;;;19.15;15.00;;;;;;;19.00;96.83;102041.34;4971524;28;20037;-75
2023/05/13 08:51:27;;;;;;;17.80;14.30;;;;;;;19.13;91.99;102039.41;4965990;28;20170;-75
2023/05/13 08:53:53;;;;;;;19.65;14.45;;;;;;;18.84;96.00;102039.00;4979036;28;20362;-75
2023/05/13 08:56:21;;;;;;;21.95;16.05;;;;;;;18.96;98.40;102036.31;4971765;28;20066;-73
2023/05/13 08:58:47;;;;;;;21.98;14.65;;;;;;;19.24;97.92;102038.53;4968530;28;20035;-75
2023/05/13 09:01:13;;;;;;;20.10;15.18;;;;;;;19.03;93.01;102032.16;4975597;28;20412;-78
2023/05/13 09:03:56;;;;;;;19.70;14.75;;;;;;;19.52;95.10;102030.84;4973273;28;20090;-76
2023/05/13 09:06:22;;;;;;;19.45;14.35;;;;;;;19.83;94.24;102031.91;4978234;28;20035;-77
2023/05/13 09:08:47;;;;;;;19.02;13.48;;;;;;;19.59;88.21;102032.97;4982048;28;20042;-77
2023/05/13 09:11:13;;;;;;;26.35;15.32;;;;;;;19.16;93.33;102027.47;4977989;28;20031;-78
2023/05/13 09:13:41;;;;;;;18.20;14.27;;;;;;;19.52;93.94;102031.69;4977986;28;20046;-76
2023/05/13 09:16:07;;;;;;;21.75;12.82;;;;;;;19.68;87.38;102031.34;4984180;28;20079;-77
2023/05/13 09:18:36;;;;;;;19.63;15.18;;;;;;;19.98;88.44;102030.63;4979161;28;20035;-76
2023/05/13 09:21:20;;;;;;;19.88;14.80;;;;;;;19.48;92.84;102034.78;4980688;28;20231;-77
2023/05/13 09:23:46;;;;;;;20.80;13.95;;;;;;;19.61;88.47;102032.84;4977232;28;20031;-76
2023/05/13 09:26:27;;;;;;;23.38;14.73;;;;;;;19.76;91.33;102028.00;4978565;28;20035;-76
2023/05/13 09:29:20;;;;;;;21.13;14.90;;;;;;;19.77;94.55;102029.72;4969407;28;20035;-76
2023/05/13 09:31:48;;;;;;;19.55;13.90;;;;;;;20.21;93.95;102028.66;4968991;28;20039;-76
2023/05/13 09:34:23;;;;;;;18.50;13.35;;;;;;;20.70;86.85;102021.75;4967191;28;20129;-77
2023/05/13 09:36:58;;;;;;;22.73;14.23;;;;;;;20.42;85.59;102023.25;4966072;28;20165;-77
2023/05/13 09:39:24;;;;;;;17.27;13.32;;;;;;;20.77;87.58;102019.34;4981359;28;20054;-78
2023/05/13 09:41:51;;;;;;;16.30;12.68;;;;;;;20.34;81.49;102010.38;4962004;28;20035;-77
2023/05/13 09:44:16;;;;;;;17.35;13.80;;;;;;;20.24;85.00;102012.16;4963012;28;20149;-77
2023/05/13 09:46:42;;;;;;;19.23;13.27;;;;;;;20.90;83.19;102015.44;4976757;28;20152;-77
2023/05/13 09:49:10;;;;;;;17.30;12.98;;;;;;;20.82;89.30;102012.53;4958468;28;20038;-76
2023/05/13 09:51:36;;;;;;;19.02;11.95;;;;;;;20.23;77.42;102018.59;4960965;28;20042;-76
2023/05/13 09:54:05;;;;;;;16.48;12.35;;;;;;;20.47;79.35;102012.91;4959601;28;20043;-76
2023/05/13 09:56:33;;;;;;;17.30;11.85;;;;;;;20.47;77.88;102010.19;4974479;28;20043;-76
2023/05/13 09:59:05;;;;;;;14.65;12.30;;;;;;;20.39;78.34;102004.56;4958649;28;21328;-77
2023/05/13 10:01:35;;;;;;;15.90;12.52;;;;;;;20.57;81.00;102000.28;4959130;28;20093;-77
2023/05/13 10:04:05;;;;;;;15.40;11.20;;;;;;;20.93;75.51;101998.03;4959105;28;20139;-76
2023/05/13 10:06:33;;;;;;;20.10;11.87;;;;;;;20.83;78.96;101997.97;4958891;28;20039;-76
2023/05/13 10:09:09;;;;;;;16.95;11.88;;;;;;;20.95;84.87;101996.91;4941813;28;20094;-76
2023/05/13 10:11:35;;;;;;;18.70;11.98;;;;;;;20.94;80.05;102000.63;4957597;28;20134;-76
2023/05/13 10:14:04;;;;;;;19.25;11.02;;;;;;;21.15;79.91;101995.13;4954729;28;20050;-76
2023/05/13 10:16:37;;;;;;;15.68;10.18;;;;;;;20.86;74.12;101991.44;4955044;28;20049;-77
2023/05/13 10:19:05;;;;;;;15.13;10.95;;;;;;;21.23;79.77;101991.69;4965470;28;20043;-77
2023/05/13 10:21:31;;;;;;;14.82;10.38;;;;;;;21.46;74.07;101985.09;4952190;28;20058;-76
2023/05/13 10:23:57;;;;;;;14.02;9.65;;;;;;;21.05;72.79;101985.25;4954940;28;20126;-75
2023/05/13 10:26:24;;;;;;;13.98;9.52;;;;;;;21.24;73.50;101984.44;4947928;28;20082;-76
2023/05/13 10:28:49;;;;;;;18.17;10.13;;;;;;;21.48;71.68;101978.66;4953093;28;20211;-76
2023/05/13 10:31:16;;;;;;;18.90;9.50;;;;;;;21.49;70.87;101977.66;4954111;28;20425;-76
2023/05/13 10:33:42;;;;;;;15.18;8.93;;;;;;;21.50;69.87;101968.53;4953137;28;20177;-75
2023/05/13 10:36:11;;;;;;;16.27;8.55;;;;;;;21.62;70.97;101973.69;4951997;28;20035;-75
2023/05/13 10:39:00;;;;;;;14.15;7.72;;;;;;;21.58;69.75;101979.53;4954153;28;20073;-76
2023/05/13 10:41:59;;;;;;;11.02;7.22;;;;;;;21.26;63.55;101968.88;4932933;28;20047;-76
2023/05/13 10:44:25;;;;;;;12.13;6.72;;;;;;;21.42;64.98;101974.66;4967285;28;20117;-76
2023/05/13 10:46:50;;;;;;;10.75;6.28;;;;;;;21.70;58.98;101964.84;4953042;28;20503;-76
2023/05/13 10:49:16;;;;;;;10.80;5.88;;;;;;;21.93;61.31;101968.97;4953178;28;20831;-76
2023/05/13 10:51:47;;;;;;;7.68;5.07;;;;;;;22.13;60.42;101964.41;4954954;28;20901;-76
2023/05/13 10:54:21;;;;;;;10.98;5.97;;;;;;;21.80;57.87;101968.41;4967767;28;20043;-76
2023/05/13 10:56:56;;;;;;;10.40;6.53;;;;;;;22.12;60.34;101968.13;4961011;28;20869;-76
2023/05/13 10:59:22;;;;;;;8.68;5.97;;;;;;;22.01;62.69;101967.41;4955920;28;20035;-76
2023/05/13 11:01:48;;;;;;;10.65;5.35;;;;;;;21.86;55.23;101973.25;4940221;28;20039;-76
2023/05/13 11:04:21;;;;;;;6.97;5.82;;;;;;;22.25;58.12;101958.81;4967043;28;20595;-77
2023/05/13 11:06:48;;;;;;;9.82;6.13;;;;;;;22.04;54.47;101964.38;4968090;28;20034;-77
2023/05/13 11:09:29;;;;;;;9.35;6.07;;;;;;;21.71;56.52;101963.84;4965101;28;20114;-77